Time;durP1;ratioP1;P1;durP2;ratioP2;P2;SDS_P1;SDS_P2;PMS_P1;PMS_P2;Temp;Humidity;BMP_temperature;BMP_pressure;BME280_temperature;BME280_humidity;BME280_pressure;Samples;Min_cycle;Max_cycle;Signal;HPM_P1;HPM_P2
2022/06/28 00:01:50;;;;;;;9.20;5.93;;;;;;;20.87;79.30;95120.06;5015931;28;20458;-79
2022/06/28 00:04:17;;;;;;;7.27;6.57;;;;;;;20.82;79.45;95132.31;5016099;28;20484;-76
2022/06/28 00:06:44;;;;;;;8.00;6.90;;;;;;;20.78;79.83;95121.16;5015958;28;20551;-78
2022/06/28 00:09:12;;;;;;;7.03;6.43;;;;;;;20.76;79.57;95120.53;5015835;28;20444;-79
2022/06/28 00:11:40;;;;;;;6.80;6.20;;;;;;;20.70;79.75;95121.28;4980875;28;20436;-78
2022/06/28 00:16:04;;;;;;;7.43;6.60;;;;;;;20.71;80.01;95130.94;4981195;28;20436;-78
2022/06/28 00:16:53;;;;;;;7.00;6.40;;;;;;;20.71;79.93;95128.25;5015639;28;20510;-78
2022/06/28 00:19:20;;;;;;;7.03;6.40;;;;;;;20.72;79.77;95130.75;5015775;28;20448;-79
2022/06/28 00:21:47;;;;;;;6.67;5.77;;;;;;;20.67;79.63;95138.47;5015498;28;20446;-79
2022/06/28 00:24:14;;;;;;;8.77;6.90;;;;;;;20.68;79.91;95136.63;5015857;28;20850;-79
2022/06/28 00:26:42;;;;;;;8.37;6.67;;;;;;;20.61;80.11;95141.06;5016009;28;20447;-79
2022/06/28 00:29:10;;;;;;;8.30;7.50;;;;;;;20.63;80.43;95131.03;5015226;28;20957;-79
2022/06/28 00:31:37;;;;;;;10.50;6.47;;;;;;;20.66;80.62;95139.50;5015403;28;20979;-79
2022/06/28 00:34:03;;;;;;;13.97;6.67;;;;;;;20.67;80.33;95141.16;5015253;28;20775;-78
2022/06/28 00:36:32;;;;;;;8.03;6.17;;;;;;;20.69;80.22;95135.63;5015480;28;20483;-80
2022/06/28 00:38:59;;;;;;;6.63;6.00;;;;;;;20.73;80.20;95134.22;5015698;28;20450;-80
2022/06/28 00:41:26;;;;;;;7.63;6.40;;;;;;;20.74;80.01;95133.22;5015563;28;20444;-79
2022/06/28 00:43:56;;;;;;;7.00;6.40;;;;;;;20.69;80.02;95135.63;5015148;28;20931;-79
2022/06/28 00:46:23;;;;;;;9.10;6.17;;;;;;;20.70;79.71;95129.28;5015308;28;20440;-79
2022/06/28 00:48:50;;;;;;;7.10;6.27;;;;;;;20.70;80.03;95139.94;5014581;28;20450;-79
2022/06/28 00:51:18;;;;;;;7.47;6.87;;;;;;;20.67;79.93;95133.16;4980784;28;20451;-79
2022/06/28 00:53:45;;;;;;;6.23;5.80;;;;;;;20.65;80.06;95135.16;5015110;28;20456;-79
2022/06/28 00:56:12;;;;;;;8.03;7.30;;;;;;;20.65;80.15;95135.16;5015140;28;20488;-79
2022/06/28 00:58:38;;;;;;;7.73;6.97;;;;;;;20.65;80.51;95131.69;5015018;28;20459;-78
2022/06/28 01:01:07;;;;;;;7.30;6.27;;;;;;;20.69;80.22;95136.44;5014782;28;20450;-80
2022/06/28 01:03:34;;;;;;;11.50;6.60;;;;;;;20.66;79.68;95128.00;5014717;28;20791;-79
2022/06/28 01:06:01;;;;;;;7.50;6.50;;;;;;;20.67;79.93;95133.16;5014676;28;20521;-81
2022/06/28 01:08:28;;;;;;;6.83;6.27;;;;;;;20.64;79.99;95127.34;5014917;28;20448;-79
2022/06/28 01:10:54;;;;;;;10.10;6.47;;;;;;;20.61;79.87;95136.56;5014841;28;21003;-79
2022/06/28 01:13:21;;;;;;;6.27;5.77;;;;;;;20.59;79.86;95129.75;5014579;28;20818;-79
2022/06/28 01:15:48;;;;;;;6.80;6.30;;;;;;;20.65;79.87;95142.34;5014401;28;20822;-80
2022/06/28 01:18:17;;;;;;;10.20;6.60;;;;;;;20.68;80.10;95140.13;5014655;28;20444;-80
2022/06/28 01:20:45;;;;;;;9.83;7.07;;;;;;;20.67;80.08;95141.16;5014567;28;20444;-78
2022/06/28 01:23:16;;;;;;;8.07;7.30;;;;;;;20.70;80.21;95131.94;4996166;28;20469;-79
2022/06/28 01:25:43;;;;;;;7.67;6.70;;;;;;;20.68;80.08;95128.63;5014372;28;20454;-79
2022/06/28 01:28:11;;;;;;;7.00;6.37;;;;;;;20.70;79.77;95129.28;5014400;28;20859;-79
2022/06/28 01:30:38;;;;;;;6.67;6.17;;;;;;;20.69;79.95;95124.97;5014528;28;20451;-78
2022/06/28 01:33:06;;;;;;;6.77;6.17;;;;;;;20.68;80.31;95126.78;5014374;28;20447;-78
2022/06/28 01:35:33;;;;;;;6.83;6.23;;;;;;;20.66;80.40;95125.34;5014416;28;20451;-79
2022/06/28 01:38:00;;;;;;;8.40;5.90;;;;;;;20.63;80.08;95126.53;5014078;28;20487;-79
2022/06/28 01:40:29;;;;;;;8.93;7.13;;;;;;;20.60;79.74;95126.91;5014213;28;20818;-79
2022/06/28 01:42:56;;;;;;;11.23;6.77;;;;;;;20.53;80.39;95123.34;4995605;28;20995;-77
2022/06/28 01:45:23;;;;;;;10.57;7.17;;;;;;;20.45;80.73;95122.59;5014096;28;20448;-79
2022/06/28 01:47:50;;;;;;;7.07;6.47;;;;;;;20.38;81.00;95117.13;5014174;28;20464;-80
2022/06/28 01:50:17;;;;;;;8.50;7.10;;;;;;;20.28;80.94;95112.09;5014066;28;20440;-80
2022/06/28 01:52:44;;;;;;;8.40;7.60;;;;;;;20.27;81.48;95114.94;5014098;28;20444;-79
2022/06/28 01:55:11;;;;;;;8.43;7.63;;;;;;;20.23;81.71;95119.78;5013964;28;20440;-79
2022/06/28 01:57:40;;;;;;;8.00;6.00;;;;;;;20.20;81.86;95114.00;5013653;28;20491;-79
2022/06/28 02:00:09;;;;;;;7.40;6.80;;;;;;;20.18;81.70;95111.53;5013915;28;20452;-79
2022/06/28 02:02:36;;;;;;;7.60;6.90;;;;;;;20.17;82.04;95112.53;5013789;28;20595;-79
2022/06/28 02:05:03;;;;;;;7.80;7.10;;;;;;;20.20;82.15;95120.16;5013361;28;20833;-79
2022/06/28 02:07:30;;;;;;;9.90;7.93;;;;;;;20.17;81.81;95114.38;5013844;28;20443;-79
2022/06/28 02:09:57;;;;;;;9.17;7.20;;;;;;;20.19;81.61;95112.34;5013335;28;20953;-80
2022/06/28 02:12:26;;;;;;;7.90;7.17;;;;;;;20.19;81.83;95118.50;5013662;28;20475;-80
2022/06/28 02:14:54;;;;;;;8.30;7.60;;;;;;;20.17;81.31;95119.72;5013567;28;21009;-79
2022/06/28 02:17:21;;;;;;;8.40;7.37;;;;;;;20.16;82.02;95113.56;5013466;28;20878;-80
2022/06/28 02:19:48;;;;;;;7.77;7.00;;;;;;;20.21;82.33;95113.81;5013607;28;20436;-79
2022/06/28 02:22:15;;;;;;;8.33;7.53;;;;;;;20.24;82.88;95121.47;5013581;28;20448;-79
2022/06/28 02:24:42;;;;;;;8.10;7.40;;;;;;;20.25;82.41;95127.63;5013352;28;20802;-79
2022/06/28 02:27:09;;;;;;;15.90;10.17;;;;;;;20.19;83.01;95131.84;5013418;28;20452;-80
2022/06/28 02:29:36;;;;;;;10.13;9.13;;;;;;;20.19;83.32;95133.66;5013329;28;20463;-79
2022/06/28 02:32:05;;;;;;;9.30;8.50;;;;;;;20.18;83.71;95127.50;5013264;28;20455;-80
2022/06/28 02:42:45;;;;;;;8.40;7.70;;;;;;;20.14;83.90;95130.72;5013128;28;20439;-80
2022/06/28 02:45:11;;;;;;;16.53;9.37;;;;;;;20.15;83.66;95132.38;5012815;28;20456;-80
2022/06/28 02:47:40;;;;;;;10.53;9.43;;;;;;;20.14;83.97;95139.56;5013061;28;20463;-80
2022/06/28 02:50:08;;;;;;;10.60;8.70;;;;;;;20.14;83.89;95136.88;5011009;28;20436;-79
2022/06/28 02:52:35;;;;;;;9.50;8.03;;;;;;;20.09;83.75;95133.94;4978502;28;20978;-80
2022/06/28 02:55:02;;;;;;;10.90;8.67;;;;;;;19.94;83.75;95138.41;5013002;28;20498;-78
2022/06/28 02:57:29;;;;;;;9.47;6.77;;;;;;;19.89;83.99;95140.81;5012738;28;20520;-80
2022/06/28 02:59:56;;;;;;;8.53;7.80;;;;;;;19.79;83.80;95128.56;5012762;28;20455;-80
2022/06/28 03:02:23;;;;;;;9.20;7.37;;;;;;;19.80;83.73;95135.56;5012911;28;20448;-81
2022/06/28 03:04:51;;;;;;;7.63;6.93;;;;;;;19.79;83.71;95131.25;5012658;28;20488;-80
2022/06/28 03:07:18;;;;;;;8.57;7.87;;;;;;;19.75;83.80;95121.97;5012872;28;20446;-79
2022/06/28 03:09:45;;;;;;;7.83;7.03;;;;;;;19.69;84.33;95117.38;4994562;28;20444;-78
2022/06/28 03:12:12;;;;;;;9.50;7.17;;;;;;;19.59;84.83;95115.94;5012252;28;20447;-80
2022/06/28 03:14:39;;;;;;;7.77;7.07;;;;;;;19.54;85.46;95123.66;5012626;28;20542;-76
2022/06/28 03:17:06;;;;;;;8.43;7.77;;;;;;;19.55;85.95;95120.81;5012710;28;20566;-79
2022/06/28 03:19:33;;;;;;;8.20;7.50;;;;;;;19.51;85.55;95119.47;5012630;28;20440;-79
2022/06/28 03:22:01;;;;;;;9.13;8.20;;;;;;;19.51;86.01;95119.47;5012909;28;20452;-80
2022/06/28 03:24:28;;;;;;;11.13;8.00;;;;;;;19.49;85.98;95106.34;5012538;28;20935;-80
2022/06/28 03:26:55;;;;;;;8.10;7.50;;;;;;;19.54;85.86;95102.34;5012401;28;21004;-81
2022/06/28 03:29:22;;;;;;;14.30;7.33;;;;;;;19.60;85.31;95106.94;5012588;28;20873;-80
2022/06/28 03:31:49;;;;;;;7.73;7.13;;;;;;;19.70;85.08;95113.69;5012814;28;20510;-80
2022/06/28 03:34:16;;;;;;;7.67;6.97;;;;;;;19.79;85.30;95112.59;5012460;28;20444;-79
2022/06/28 03:36:43;;;;;;;12.60;7.70;;;;;;;19.93;84.68;95123.44;5012512;28;20977;-79
2022/06/28 03:39:11;;;;;;;9.37;8.47;;;;;;;20.05;84.76;95116.69;5012327;28;20823;-78
2022/06/28 03:41:38;;;;;;;9.73;8.83;;;;;;;20.13;84.57;95118.44;5012012;28;20448;-80
2022/06/28 03:44:05;;;;;;;12.87;8.83;;;;;;;20.50;85.46;95120.19;5013318;28;20436;-79
2022/06/28 03:46:32;;;;;;;11.80;9.10;;;;;;;20.61;83.79;95127.72;5013500;28;20448;-80
2022/06/28 03:48:58;;;;;;;10.70;9.73;;;;;;;20.98;82.33;95130.22;5013499;28;20819;-81
2022/06/28 03:51:25;;;;;;;10.83;8.20;;;;;;;21.53;81.65;95134.13;5013693;28;20428;-79
2022/06/28 03:53:52;;;;;;;12.30;8.43;;;;;;;22.12;77.97;95136.47;5013689;28;20934;-86
2022/06/28 03:56:23;;;;;;;10.53;9.43;;;;;;;22.59;75.93;95136.78;5014232;28;20439;-81
2022/06/28 03:58:49;;;;;;;10.40;9.30;;;;;;;22.98;74.48;95142.31;5013883;28;20829;-81
2022/06/28 04:01:16;;;;;;;8.73;7.93;;;;;;;23.37;74.51;95138.91;5008952;28;20471;-84
2022/06/28 04:03:43;;;;;;;13.23;10.23;;;;;;;23.77;70.48;95155.09;5009429;28;20483;-77
2022/06/28 04:06:10;;;;;;;12.23;9.77;;;;;;;24.02;70.10;95153.47;5013963;28;20452;-80
2022/06/28 04:08:37;;;;;;;10.50;9.50;;;;;;;24.19;69.37;95159.22;5000767;28;20784;-79
2022/06/28 04:13:51;;;;;;;13.83;11.60;;;;;;;24.32;67.83;95166.47;5011820;28;20518;-79
2022/06/28 04:16:19;;;;;;;11.27;9.77;;;;;;;24.23;68.54;95151.59;4994055;28;20461;-79
2022/06/28 04:18:46;;;;;;;11.33;10.17;;;;;;;24.13;68.65;95164.59;4999066;28;20502;-78
2022/06/28 04:21:14;;;;;;;12.90;11.60;;;;;;;24.05;69.26;95174.50;5011311;28;20447;-78
2022/06/28 04:23:42;;;;;;;13.60;11.37;;;;;;;23.91;69.93;95167.47;5012600;28;20444;-76
2022/06/28 04:26:09;;;;;;;13.40;11.83;;;;;;;23.94;70.13;95167.06;5015317;28;20446;-79
2022/06/28 04:28:36;;;;;;;17.03;11.43;;;;;;;24.19;69.55;95169.13;5015642;28;20471;-79
2022/06/28 04:31:05;;;;;;;20.37;11.20;;;;;;;24.33;68.80;95176.19;5014730;28;20447;-79
2022/06/28 04:33:32;;;;;;;13.60;11.90;;;;;;;24.44;67.87;95178.22;5014319;28;20456;-80
2022/06/28 04:35:59;;;;;;;14.23;12.40;;;;;;;24.28;69.11;95175.94;5015282;28;20977;-78
2022/06/28 04:38:26;;;;;;;13.70;12.30;;;;;;;24.19;69.50;95186.03;5015133;28;20486;-79
2022/06/28 04:40:53;;;;;;;17.10;11.80;;;;;;;24.48;68.60;95184.81;5015102;28;20451;-79
2022/06/28 04:43:20;;;;;;;15.20;12.20;;;;;;;24.70;67.81;95188.91;5015146;28;20448;-79
2022/06/28 04:45:47;;;;;;;16.13;12.60;;;;;;;24.97;67.39;95178.91;5015235;28;20444;-78
2022/06/28 04:48:15;;;;;;;12.23;10.73;;;;;;;25.39;66.07;95178.56;5015047;28;20452;-79
2022/06/28 04:50:42;;;;;;;17.63;11.13;;;;;;;25.78;64.78;95183.75;4996162;28;20527;-78
2022/06/28 04:53:09;;;;;;;13.50;12.30;;;;;;;25.80;63.02;95181.66;5014979;28;20455;-79
2022/06/28 04:55:37;;;;;;;14.00;10.53;;;;;;;26.04;63.23;95185.44;5015099;28;20914;-79
2022/06/28 04:58:04;;;;;;;11.10;9.90;;;;;;;26.05;61.80;95179.00;4996262;28;20479;-80
2022/06/28 05:00:31;;;;;;;11.50;9.87;;;;;;;26.24;61.78;95182.56;5014548;28;20448;-87
2022/06/28 05:02:58;;;;;;;11.20;10.00;;;;;;;26.33;61.85;95177.75;5016096;28;20451;-80
2022/06/28 05:05:26;;;;;;;12.70;9.70;;;;;;;26.22;60.33;95179.28;4981708;28;20495;-80
2022/06/28 05:07:53;;;;;;;10.53;9.40;;;;;;;26.39;61.14;95171.50;5015918;28;20856;-81
2022/06/28 05:10:20;;;;;;;15.20;9.80;;;;;;;26.57;60.55;95178.78;5015685;28;20432;-80
2022/06/28 05:12:46;;;;;;;9.50;8.60;;;;;;;26.86;60.33;95176.19;5015872;28;20448;-79
2022/06/28 05:15:13;;;;;;;12.20;8.17;;;;;;;27.10;58.59;95171.81;5015721;28;20451;-80
2022/06/28 05:17:41;;;;;;;14.57;9.10;;;;;;;27.19;59.71;95169.66;5016224;28;20491;-82
2022/06/28 05:20:09;;;;;;;9.80;8.47;;;;;;;27.43;59.03;95170.56;4981827;28;20450;-77
2022/06/28 05:22:37;;;;;;;9.57;8.53;;;;;;;27.71;57.15;95167.31;4949394;28;20455;-77
2022/06/28 05:25:04;;;;;;;16.00;10.70;;;;;;;27.77;56.48;95169.94;4980782;28;20448;-78
2022/06/28 05:27:31;;;;;;;10.37;8.70;;;;;;;27.93;56.13;95160.34;5006832;28;20479;-77
2022/06/28 05:29:58;;;;;;;11.57;8.87;;;;;;;28.12;55.55;95168.34;5001541;28;20444;-76
2022/06/28 05:32:25;;;;;;;8.07;7.47;;;;;;;28.37;55.38;95167.13;5014978;28;20445;-77
2022/06/28 05:34:52;;;;;;;7.90;7.20;;;;;;;28.75;55.25;95159.59;4980129;28;20444;-77
2022/06/28 05:37:18;;;;;;;8.63;7.93;;;;;;;29.19;53.94;95166.25;5015242;28;20507;-78
2022/06/28 05:39:47;;;;;;;11.00;9.23;;;;;;;29.41;52.38;95167.25;5014520;28;20445;-75
2022/06/28 05:42:14;;;;;;;14.50;8.00;;;;;;;29.55;51.98;95160.53;5014610;28;20466;-74
2022/06/28 05:44:41;;;;;;;8.90;8.00;;;;;;;29.72;52.01;95155.16;5014648;28;20451;-76
2022/06/28 05:47:10;;;;;;;19.37;11.13;;;;;;;29.54;52.09;95164.31;4985243;28;20445;-76
2022/06/28 05:49:37;;;;;;;14.50;10.70;;;;;;;29.34;52.12;95171.16;5015024;28;20486;-76
2022/06/28 05:52:04;;;;;;;15.53;9.33;;;;;;;29.21;54.23;95174.97;5014181;28;20468;-77
2022/06/28 05:54:31;;;;;;;10.33;8.93;;;;;;;29.23;54.25;95173.66;5000899;28;21105;-77
2022/06/28 05:56:59;;;;;;;10.37;9.37;;;;;;;29.39;55.52;95180.19;5000070;28;20442;-78
2022/06/28 05:59:27;;;;;;;9.03;8.30;;;;;;;29.77;52.94;95185.00;5014670;28;20490;-77
2022/06/28 06:01:55;;;;;;;9.80;8.77;;;;;;;30.07;51.40;95187.50;5015116;28;20451;-77
2022/06/28 06:04:24;;;;;;;9.30;8.50;;;;;;;30.07;49.90;95184.78;5014913;28;20478;-76
2022/06/28 06:06:51;;;;;;;11.00;9.77;;;;;;;30.07;49.49;95181.22;5014113;28;20796;-77
2022/06/28 06:09:18;;;;;;;10.17;9.40;;;;;;;30.18;49.40;95189.28;5014704;28;21024;-74
2022/06/28 06:11:47;;;;;;;11.00;9.90;;;;;;;30.28;49.28;95183.22;5014090;28;20465;-76
2022/06/28 06:14:15;;;;;;;10.00;9.10;;;;;;;30.43;49.03;95182.66;5013298;28;20990;-74
2022/06/28 06:16:42;;;;;;;11.23;10.23;;;;;;;30.32;48.07;95180.84;5013396;28;20921;-78
2022/06/28 06:19:09;;;;;;;11.53;10.37;;;;;;;30.31;49.01;95169.19;5012869;28;20486;-76
2022/06/28 06:21:36;;;;;;;14.47;9.23;;;;;;;30.44;50.33;95173.47;5012914;28;20805;-77
2022/06/28 06:24:03;;;;;;;11.77;9.47;;;;;;;30.40;49.90;95159.59;5013198;28;20448;-73
2022/06/28 06:26:31;;;;;;;19.67;10.50;;;;;;;30.61;49.44;95171.59;5013093;28;20447;-77
2022/06/28 06:28:58;;;;;;;12.87;10.83;;;;;;;30.75;48.34;95164.75;5013113;28;20449;-78
2022/06/28 06:31:26;;;;;;;10.87;9.87;;;;;;;30.65;49.25;95158.34;5012966;28;20456;-76
2022/06/28 06:33:53;;;;;;;10.17;9.17;;;;;;;30.85;49.63;95160.56;5012857;28;20441;-78
2022/06/28 06:36:21;;;;;;;11.10;10.07;;;;;;;30.91;48.34;95164.97;4978532;28;20968;-77
2022/06/28 06:38:48;;;;;;;15.90;10.40;;;;;;;30.75;49.53;95153.94;5012258;28;20491;-75
2022/06/28 06:41:15;;;;;;;17.60;11.60;;;;;;;30.55;48.06;95155.47;5013820;28;20462;-75
2022/06/28 06:43:42;;;;;;;12.27;10.93;;;;;;;30.62;49.24;95146.13;5013781;28;20446;-76
2022/06/28 06:46:09;;;;;;;10.87;9.83;;;;;;;30.81;51.19;95149.38;5012127;28;20528;-77
2022/06/28 06:48:37;;;;;;;16.40;11.20;;;;;;;30.71;47.51;95147.38;5012766;28;20454;-76
2022/06/28 06:51:04;;;;;;;10.73;9.73;;;;;;;30.59;48.56;95143.88;5012192;28;20488;-77
2022/06/28 06:53:31;;;;;;;11.33;10.23;;;;;;;30.30;49.39;95139.66;5013041;28;20443;-76
2022/06/28 06:55:59;;;;;;;11.50;9.60;;;;;;;30.33;50.92;95133.75;5013304;28;20456;-76
2022/06/28 06:58:26;;;;;;;10.17;9.20;;;;;;;30.50;51.32;95131.84;5014093;28;20491;-75
2022/06/28 07:00:53;;;;;;;10.53;9.47;;;;;;;30.62;52.47;95129.88;5013793;28;20797;-76
2022/06/28 07:03:20;;;;;;;11.30;9.13;;;;;;;30.77;51.86;95123.88;5013500;28;20481;-75
2022/06/28 07:05:48;;;;;;;15.30;10.40;;;;;;;30.52;50.18;95121.59;5013354;28;20544;-76
2022/06/28 07:08:16;;;;;;;13.77;10.40;;;;;;;30.76;50.54;95119.53;5013483;28;20948;-76
2022/06/28 07:10:43;;;;;;;13.30;8.47;;;;;;;30.90;52.03;95126.19;5013703;28;20458;-76
2022/06/28 07:13:10;;;;;;;11.77;8.97;;;;;;;31.02;51.17;95126.09;5013278;28;20469;-77
2022/06/28 07:15:37;;;;;;;10.57;9.50;;;;;;;31.26;48.51;95134.84;5013311;28;20457;-76
2022/06/28 07:18:04;;;;;;;12.70;9.40;;;;;;;31.20;47.18;95123.09;5013249;28;20494;-76
2022/06/28 07:20:31;;;;;;;11.90;9.43;;;;;;;31.28;48.51;95129.97;5013371;28;20756;-76
2022/06/28 07:22:59;;;;;;;13.23;9.43;;;;;;;31.04;48.27;95123.94;5013087;28;20460;-76
2022/06/28 07:25:26;;;;;;;12.10;9.57;;;;;;;31.02;48.22;95126.09;5013608;28;20486;-76
2022/06/28 07:27:53;;;;;;;21.07;9.00;;;;;;;31.09;48.36;95116.69;5013431;28;20486;-76
2022/06/28 07:30:20;;;;;;;10.17;9.20;;;;;;;31.36;49.51;95122.19;5013470;28;20444;-77
2022/06/28 07:32:47;;;;;;;9.40;8.53;;;;;;;31.45;46.45;95122.56;5013305;28;20784;-76
2022/06/28 07:35:14;;;;;;;15.00;9.03;;;;;;;31.51;46.67;95132.38;5013304;28;20531;-76
2022/06/28 07:37:41;;;;;;;8.60;8.00;;;;;;;31.45;45.95;95141.56;4978636;28;20445;-76
2022/06/28 07:40:10;;;;;;;10.57;8.00;;;;;;;31.33;45.18;95133.56;5013403;28;20463;-76
2022/06/28 07:42:37;;;;;;;9.70;8.90;;;;;;;31.12;44.81;95126.22;5013201;28;20526;-78
2022/06/28 07:45:05;;;;;;;8.70;7.27;;;;;;;31.28;45.03;95138.13;5013992;28;20431;-76
2022/06/28 07:47:32;;;;;;;6.97;6.37;;;;;;;31.57;45.72;95136.81;5011166;28;20459;-76
2022/06/28 07:52:43;;;;;;;8.40;7.27;;;;;;;31.82;45.06;95139.00;5013281;28;20430;-76
2022/06/28 07:55:12;;;;;;;8.07;7.27;;;;;;;31.82;44.04;95139.00;5012468;28;20976;-76
2022/06/28 07:57:39;;;;;;;8.60;7.50;;;;;;;31.85;42.66;95143.91;5013619;28;20474;-76
2022/06/28 08:00:07;;;;;;;7.80;5.90;;;;;;;31.50;42.20;95138.88;5016663;28;20966;-76
2022/06/28 08:02:34;;;;;;;6.20;5.80;;;;;;;31.49;41.23;95131.00;5016966;28;20451;-76
2022/06/28 08:05:01;;;;;;;6.03;5.63;;;;;;;31.58;41.75;95121.34;5017212;28;20480;-76
2022/06/28 08:07:28;;;;;;;8.13;5.30;;;;;;;31.68;41.90;95127.69;5016935;28;20526;-75
2022/06/28 08:09:55;;;;;;;6.43;5.80;;;;;;;31.73;40.95;95126.97;5017001;28;20449;-76
2022/06/28 08:12:24;;;;;;;9.80;5.70;;;;;;;31.72;40.55;95122.59;5017030;28;20475;-76
2022/06/28 08:14:51;;;;;;;5.70;5.30;;;;;;;31.46;40.57;95109.81;5016738;28;20447;-76
2022/06/28 08:17:18;;;;;;;8.20;6.90;;;;;;;31.04;42.00;95118.53;5016724;28;20783;-74
2022/06/28 08:19:45;;;;;;;7.57;6.87;;;;;;;30.85;42.94;95109.88;5016473;28;20999;-76
2022/06/28 08:22:12;;;;;;;10.87;6.30;;;;;;;30.90;43.10;95114.53;5016801;28;20486;-76
2022/06/28 08:24:38;;;;;;;7.30;6.60;;;;;;;30.89;43.69;95110.19;5016568;28;20472;-76
2022/06/28 08:27:06;;;;;;;6.43;5.90;;;;;;;31.16;44.89;95113.81;5016040;28;20449;-77
2022/06/28 08:29:34;;;;;;;6.70;5.93;;;;;;;31.18;43.36;95119.00;5014356;28;20445;-76
2022/06/28 08:32:02;;;;;;;7.17;6.47;;;;;;;30.68;44.26;95112.66;5016154;28;20911;-76
2022/06/28 08:34:29;;;;;;;6.30;5.67;;;;;;;30.58;44.17;95109.75;5016874;28;20451;-77
2022/06/28 08:36:56;;;;;;;7.40;6.10;;;;;;;30.75;44.49;95110.56;5016321;28;20813;-76
2022/06/28 08:39:23;;;;;;;8.53;5.93;;;;;;;30.70;44.53;95118.63;5016209;28;20489;-82
2022/06/28 08:41:51;;;;;;;6.93;6.10;;;;;;;30.77;45.14;95115.75;5016637;28;20447;-82
2022/06/28 08:44:18;;;;;;;6.43;5.83;;;;;;;30.93;44.69;95114.84;5016747;28;21183;-82
2022/06/28 08:46:51;;;;;;;6.93;5.90;;;;;;;30.87;43.74;95124.00;5016969;28;20957;-80
2022/06/28 08:49:29;;;;;;;8.70;6.30;;;;;;;30.71;44.49;95114.03;5017033;28;20454;-80
2022/06/28 08:51:56;;;;;;;7.43;6.80;;;;;;;30.87;44.73;95112.34;5016935;28;20443;-81
2022/06/28 08:54:23;;;;;;;8.30;6.23;;;;;;;31.08;45.38;95106.94;5016325;28;20432;-83
2022/06/28 08:56:51;;;;;;;7.00;6.50;;;;;;;31.24;45.00;95107.97;5016618;28;20457;-77
2022/06/28 08:59:17;;;;;;;6.53;6.03;;;;;;;31.20;45.96;95112.22;5015994;28;20494;-76
2022/06/28 09:01:46;;;;;;;10.33;6.27;;;;;;;30.85;46.04;95104.44;5015344;28;20461;-76
2022/06/28 09:04:13;;;;;;;5.97;5.57;;;;;;;31.12;44.16;95110.78;5015529;28;20571;-75
2022/06/28 09:06:40;;;;;;;8.33;5.97;;;;;;;31.17;43.44;95120.88;5015808;28;20460;-75
2022/06/28 09:09:07;;;;;;;6.20;5.60;;;;;;;31.37;43.76;95110.28;5015160;28;20458;-75
2022/06/28 09:11:38;;;;;;;6.30;5.83;;;;;;;31.53;43.86;95111.28;4981037;28;20445;-76
2022/06/28 09:14:21;;;;;;;6.40;5.90;;;;;;;31.52;43.02;95130.53;4981098;28;20776;-75
2022/06/28 09:16:49;;;;;;;5.50;5.00;;;;;;;31.33;45.95;95111.88;5015367;28;20449;-75
2022/06/28 09:19:16;;;;;;;6.53;5.93;;;;;;;31.26;43.53;95113.13;5015175;28;21000;-76
2022/06/28 09:21:45;;;;;;;6.80;6.20;;;;;;;30.95;43.94;95114.63;5015252;28;20451;-76
2022/06/28 09:24:25;;;;;;;8.47;6.40;;;;;;;30.87;43.86;95104.19;5015310;28;20461;-77
2022/06/28 09:26:55;;;;;;;6.83;6.20;;;;;;;31.14;43.53;95105.09;5015455;28;20949;-75
2022/06/28 09:29:22;;;;;;;8.00;6.10;;;;;;;31.29;42.80;95099.06;5013132;28;20431;-76
2022/06/28 09:31:50;;;;;;;6.00;5.40;;;;;;;31.49;42.93;95103.88;5015398;28;20975;-77
2022/06/28 09:34:17;;;;;;;7.60;6.90;;;;;;;31.47;43.32;95097.88;5014324;28;20450;-76
2022/06/28 09:36:55;;;;;;;7.30;6.70;;;;;;;31.62;42.27;95098.88;5014848;28;20451;-75
2022/06/28 09:39:23;;;;;;;6.00;5.60;;;;;;;31.72;42.50;95106.31;5015118;28;20520;-77
2022/06/28 09:41:52;;;;;;;7.23;6.20;;;;;;;31.34;41.99;95097.22;4995976;28;20479;-76
2022/06/28 09:44:24;;;;;;;8.53;5.70;;;;;;;31.51;42.58;95096.28;5014605;28;20453;-75
2022/06/28 09:46:54;;;;;;;6.13;5.63;;;;;;;31.50;41.87;95095.47;5014996;28;20457;-75
2022/06/28 09:49:28;;;;;;;7.10;6.50;;;;;;;31.11;43.13;95087.44;5014933;28;20964;-75
2022/06/28 09:51:56;;;;;;;5.80;5.37;;;;;;;31.14;44.38;95089.63;5015302;28;20448;-77
2022/06/28 09:54:27;;;;;;;10.50;5.80;;;;;;;31.05;44.97;95084.94;5015266;28;20883;-77
2022/06/28 09:56:56;;;;;;;6.50;5.83;;;;;;;30.76;43.97;95093.25;5014896;28;20450;-77
2022/06/28 09:59:25;;;;;;;6.70;6.03;;;;;;;30.39;46.57;95092.16;5014693;28;20491;-76
2022/06/28 10:01:55;;;;;;;6.87;6.23;;;;;;;29.74;46.91;95085.38;5014948;28;20538;-77
2022/06/28 10:04:23;;;;;;;7.60;6.37;;;;;;;29.62;46.86;95081.94;5014685;28;20480;-78
2022/06/28 10:06:50;;;;;;;7.30;6.70;;;;;;;29.63;48.13;95080.06;5014491;28;20450;-76
2022/06/28 10:09:19;;;;;;;7.80;7.10;;;;;;;29.26;46.63;95081.25;5014798;28;20454;-76
2022/06/28 10:17:33;;;;;;;7.63;6.53;;;;;;;29.48;47.28;95081.41;5014285;28;20433;-76
2022/06/28 10:20:02;;;;;;;7.40;6.70;;;;;;;29.74;48.04;95079.16;5014433;28;20506;-77
2022/06/28 10:22:29;;;;;;;7.00;6.30;;;;;;;29.95;47.66;95077.63;5013620;28;20465;-76
2022/06/28 10:25:00;;;;;;;7.60;6.80;;;;;;;29.96;46.24;95085.47;5014644;28;21328;-77
2022/06/28 10:27:28;;;;;;;7.00;6.10;;;;;;;29.81;46.15;95077.13;5014612;28;20826;-76
2022/06/28 10:30:18;;;;;;;6.57;6.00;;;;;;;29.96;46.96;95057.59;5014176;28;20507;-77
2022/06/28 10:32:49;;;;;;;7.43;6.73;;;;;;;30.09;46.12;95063.56;5014423;28;20831;-77
2022/06/28 10:35:52;;;;;;;7.77;6.87;;;;;;;30.05;45.77;95059.66;5014265;28;20458;-76
2022/06/28 10:38:19;;;;;;;6.43;5.93;;;;;;;30.17;46.31;95052.28;5014155;28;20442;-78
2022/06/28 10:40:49;;;;;;;6.90;6.23;;;;;;;30.18;46.57;95053.94;5013807;28;20532;-77
2022/06/28 10:43:17;;;;;;;8.30;7.53;;;;;;;29.86;50.20;95060.97;5013875;28;20451;-76
2022/06/28 10:46:06;;;;;;;7.50;6.90;;;;;;;29.71;49.54;95066.13;5013606;28;20455;-77
2022/06/28 10:49:02;;;;;;;17.23;6.20;;;;;;;29.80;46.94;95061.97;5013850;28;20455;-76
2022/06/28 10:51:30;;;;;;;7.17;6.57;;;;;;;30.07;47.00;95059.41;5014179;28;20447;-77
2022/06/28 10:54:08;;;;;;;7.00;6.30;;;;;;;30.26;45.90;95052.69;5013991;28;21054;-77
2022/06/28 10:56:40;;;;;;;6.30;5.70;;;;;;;30.25;46.72;95052.94;5013563;28;20451;-77
2022/06/28 10:59:09;;;;;;;7.23;6.03;;;;;;;30.08;46.80;95055.69;5013627;28;20976;-76
2022/06/28 11:01:56;;;;;;;7.83;7.07;;;;;;;29.91;46.77;95044.81;5012882;28;20461;-77
2022/06/28 11:04:27;;;;;;;7.10;6.20;;;;;;;29.89;46.86;95034.25;4978783;28;21004;-76
2022/06/28 11:06:56;;;;;;;9.53;6.47;;;;;;;30.02;47.50;95030.38;5013419;28;20533;-77
2022/06/28 11:09:35;;;;;;;6.70;6.10;;;;;;;29.97;48.18;95024.06;5013781;28;20465;-77
2022/06/28 11:12:11;;;;;;;6.80;6.10;;;;;;;29.99;47.97;95020.03;5013596;28;20516;-77
2022/06/28 11:14:47;;;;;;;7.57;6.17;;;;;;;30.01;47.82;95017.91;4978908;28;20816;-76
2022/06/28 11:17:16;;;;;;;6.23;5.73;;;;;;;29.85;46.90;95022.28;5013646;28;20458;-76
2022/06/28 11:19:52;;;;;;;8.73;6.30;;;;;;;29.87;48.58;95016.63;5013299;28;20517;-76
2022/06/28 11:22:20;;;;;;;6.03;5.30;;;;;;;29.64;45.76;95022.19;5013516;28;20540;-77
2022/06/28 11:24:48;;;;;;;7.20;6.60;;;;;;;29.76;45.65;95018.31;5012669;28;20451;-79
2022/06/28 11:27:25;;;;;;;6.70;6.20;;;;;;;29.35;47.03;95024.91;5013662;28;20439;-79
2022/06/28 11:29:54;;;;;;;7.40;6.73;;;;;;;29.42;47.56;95022.03;5014329;28;20498;-80
2022/06/28 11:32:26;;;;;;;102.77;27.10;;;;;;;29.09;49.14;95017.41;5013648;28;20438;-77
2022/06/28 11:35:01;;;;;;;55.53;20.07;;;;;;;28.81;49.81;95023.59;5018514;28;20446;-78
2022/06/28 11:37:29;;;;;;;158.57;41.17;;;;;;;28.53;49.88;95032.47;5018026;28;20424;-80
2022/06/28 11:39:57;;;;;;;84.47;23.43;;;;;;;28.55;49.81;95019.53;5018139;28;20494;-78
2022/06/28 11:42:24;;;;;;;13.60;8.20;;;;;;;28.63;49.36;95017.31;5018005;28;20802;-78
2022/06/28 11:44:51;;;;;;;49.00;16.50;;;;;;;28.78;48.78;95018.66;5018836;28;20769;-79
2022/06/28 11:47:20;;;;;;;15.53;9.97;;;;;;;28.85;46.63;95017.50;5019433;28;20524;-79
2022/06/28 11:49:52;;;;;;;9.53;6.60;;;;;;;29.06;46.45;95023.28;5019109;28;20457;-78
2022/06/28 11:52:20;;;;;;;7.63;6.90;;;;;;;29.33;45.74;95018.94;5017706;28;20907;-81
2022/06/28 11:54:55;;;;;;;8.33;7.67;;;;;;;29.50;46.52;95017.09;5018055;28;20442;-78